Time;durP1;ratioP1;P1;durP2;ratioP2;P2;SDS_P1;SDS_P2;PMS_P1;PMS_P2;Temp;Humidity;BMP_temperature;BMP_pressure;BME280_temperature;BME280_humidity;BME280_pressure;Samples;Min_cycle;Max_cycle;Signal;HPM_P1;HPM_P2
2022/01/27 00:01:39;;;;;;;17.80;7.88;;;5.90;99.90;;;;;;4966995;28;20050;-84
2022/01/27 00:04:13;;;;;;;22.13;8.10;;;5.60;99.90;;;;;;4973203;28;20047;-83
2022/01/27 00:06:40;;;;;;;19.95;8.10;;;6.40;99.90;;;;;;4956838;28;20133;-83
2022/01/27 00:09:21;;;;;;;19.02;8.65;;;6.40;99.90;;;;;;4940802;28;20113;-84
2022/01/27 00:11:48;;;;;;;22.33;8.80;;;5.20;99.90;;;;;;4982211;28;20117;-84
2022/01/27 00:14:17;;;;;;;21.50;8.57;;;5.20;99.90;;;;;;4991590;28;20054;-84
2022/01/27 00:16:52;;;;;;;21.85;8.77;;;5.70;99.90;;;;;;4975579;28;20062;-84
2022/01/27 00:19:18;;;;;;;26.23;8.85;;;6.60;99.90;;;;;;4992171;28;20148;-84
2022/01/27 00:21:44;;;;;;;22.27;9.13;;;6.90;99.90;;;;;;4992514;28;20126;-84
2022/01/27 00:24:09;;;;;;;33.58;10.32;;;6.50;99.90;;;;;;4984549;28;20053;-84
2022/01/27 00:26:35;;;;;;;23.98;9.52;;;6.90;99.90;;;;;;5015825;28;20069;-83
2022/01/27 00:29:01;;;;;;;22.80;9.88;;;6.30;99.90;;;;;;5015506;28;20045;-83
2022/01/27 00:31:26;;;;;;;21.95;9.73;;;6.00;99.90;;;;;;5026099;28;20070;-83
2022/01/27 00:33:53;;;;;;;18.98;8.80;;;6.90;99.90;;;;;;5015874;28;20048;-83
2022/01/27 00:36:20;;;;;;;23.35;10.40;;;7.40;99.90;;;;;;5015421;28;20124;-83
2022/01/27 00:38:45;;;;;;;22.08;9.25;;;5.20;99.90;;;;;;5032989;28;20041;-83
2022/01/27 00:41:13;;;;;;;24.38;9.90;;;6.10;99.90;;;;;;5033380;28;20501;-83
2022/01/27 00:43:39;;;;;;;26.10;9.52;;;5.80;99.90;;;;;;5033514;28;20041;-83
2022/01/27 00:46:11;;;;;;;20.55;9.23;;;6.80;99.90;;;;;;5032987;28;20416;-82
2022/01/27 00:48:36;;;;;;;21.42;8.73;;;6.50;99.90;;;;;;5025995;28;20053;-83
2022/01/27 00:51:04;;;;;;;23.83;10.25;;;6.90;99.90;;;;;;5015766;28;20053;-84
2022/01/27 00:56:01;;;;;;;24.17;10.02;;;5.70;99.90;;;;;;5032877;28;20049;-83
2022/01/27 01:01:14;;;;;;;20.95;9.48;;;6.00;99.90;;;;;;5032472;28;20057;-83
2022/01/27 01:03:44;;;;;;;23.90;9.88;;;6.00;99.90;;;;;;5033110;28;20041;-83
2022/01/27 01:17:12;;;;;;;24.90;10.05;;;6.20;99.90;;;;;;5006090;28;19929;-83
2022/01/27 01:30:46;;;;;;;26.52;10.25;;;5.90;99.90;;;;;;4971343;28;20554;-83
2022/01/27 01:33:19;;;;;;;23.42;10.27;;;5.90;99.90;;;;;;4951354;28;20062;-83
2022/01/27 01:35:49;;;;;;;27.27;10.10;;;5.70;99.90;;;;;;4954922;28;20057;-83
2022/01/27 01:38:18;;;;;;;25.88;11.05;;;5.80;99.90;;;;;;4955547;28;20133;-83
2022/01/27 01:40:46;;;;;;;23.92;10.65;;;6.00;99.90;;;;;;4969942;28;20126;-82
2022/01/27 01:43:12;;;;;;;27.25;11.52;;;6.10;99.90;;;;;;4955408;28;20082;-83
2022/01/27 01:45:38;;;;;;;26.15;11.35;;;6.30;99.90;;;;;;4970604;28;20082;-82
2022/01/27 01:48:04;;;;;;;23.83;10.50;;;5.70;99.90;;;;;;4971003;28;20407;-83
2022/01/27 01:50:30;;;;;;;27.70;12.65;;;6.10;99.90;;;;;;4954724;28;20050;-83
2022/01/27 01:52:56;;;;;;;27.40;11.15;;;6.10;99.90;;;;;;4970839;28;20050;-81
2022/01/27 01:55:23;;;;;;;28.70;11.65;;;5.80;99.90;;;;;;4970469;28;20054;-83
2022/01/27 01:57:51;;;;;;;25.67;10.85;;;6.30;99.90;;;;;;4982765;28;20426;-83
2022/01/27 02:00:18;;;;;;;29.48;11.40;;;5.70;99.90;;;;;;5011980;28;20490;-83
2022/01/27 02:02:44;;;;;;;26.70;11.90;;;5.90;99.90;;;;;;5010888;28;20124;-82
2022/01/27 02:05:10;;;;;;;31.63;11.60;;;6.60;99.90;;;;;;5010525;28;20046;-83
2022/01/27 02:08:10;;;;;;;25.98;11.23;;;6.10;99.90;;;;;;5011494;28;20069;-83
2022/01/27 02:19:13;;;;;;;23.70;10.90;;;5.70;99.90;;;;;;4973210;28;20042;-83
2022/01/27 02:21:59;;;;;;;29.20;11.75;;;5.70;99.90;;;;;;4971022;28;20034;-83
2022/01/27 02:24:31;;;;;;;29.05;12.68;;;5.70;99.90;;;;;;4966009;28;20526;-83
2022/01/27 02:26:57;;;;;;;30.20;12.52;;;5.30;99.90;;;;;;4962802;28;20097;-83
2022/01/27 02:29:25;;;;;;;25.58;12.30;;;5.70;99.90;;;;;;4978712;28;20051;-83
2022/01/27 02:31:52;;;;;;;30.42;11.63;;;7.40;99.90;;;;;;4981280;28;20086;-84
2022/01/27 02:34:19;;;;;;;26.98;11.27;;;4.90;99.90;;;;;;4979319;28;20038;-83
2022/01/27 02:36:45;;;;;;;29.45;13.10;;;5.80;99.90;;;;;;4979583;28;20047;-83
2022/01/27 02:39:11;;;;;;;31.50;12.95;;;6.00;99.90;;;;;;4960940;28;20061;-83
2022/01/27 02:41:45;;;;;;;29.80;13.10;;;5.90;99.90;;;;;;4979245;28;20037;-83
2022/01/27 02:44:29;;;;;;;32.08;13.70;;;5.80;99.90;;;;;;4981878;28;20054;-82
2022/01/27 02:46:55;;;;;;;30.42;12.85;;;5.90;99.90;;;;;;4979413;28;20121;-82
2022/01/27 02:49:21;;;;;;;27.13;12.25;;;6.20;99.90;;;;;;4989071;28;20054;-83
2022/01/27 02:51:47;;;;;;;25.27;12.02;;;5.90;99.90;;;;;;5010883;28;20426;-83
2022/01/27 02:54:13;;;;;;;29.73;13.10;;;6.20;99.90;;;;;;5011623;28;20481;-83
2022/01/27 02:56:44;;;;;;;24.48;11.13;;;6.40;99.90;;;;;;5011939;28;20434;-83
2022/01/27 02:59:10;;;;;;;26.17;12.35;;;5.80;99.90;;;;;;5010319;28;20038;-83
2022/01/27 03:01:36;;;;;;;28.75;12.43;;;6.70;99.90;;;;;;5011302;28;20153;-83
2022/01/27 03:04:02;;;;;;;28.65;12.85;;;6.80;99.90;;;;;;5014794;28;20102;-82
2022/01/27 03:06:28;;;;;;;27.33;13.52;;;5.90;99.90;;;;;;5015109;28;20129;-83
2022/01/27 03:08:53;;;;;;;34.63;13.55;;;6.30;99.90;;;;;;5013884;28;20060;-83
2022/01/27 03:11:39;;;;;;;33.70;12.63;;;5.90;99.90;;;;;;5020204;28;20060;-83
2022/01/27 03:14:05;;;;;;;31.15;13.57;;;5.90;99.90;;;;;;5034309;28;20053;-83
2022/01/27 03:16:31;;;;;;;26.40;12.57;;;6.70;99.90;;;;;;5017467;28;20478;-83
2022/01/27 03:18:57;;;;;;;31.50;13.20;;;5.90;99.90;;;;;;5034042;28;20080;-84
2022/01/27 03:21:23;;;;;;;41.33;14.48;;;6.60;99.90;;;;;;5017432;28;20049;-83
2022/01/27 03:23:48;;;;;;;28.13;13.10;;;6.30;99.90;;;;;;5016841;28;20068;-83
2022/01/27 03:26:14;;;;;;;29.52;13.07;;;5.50;99.90;;;;;;5017149;28;20099;-83
2022/01/27 03:28:40;;;;;;;29.30;13.68;;;6.80;99.90;;;;;;5017373;28;20049;-83
2022/01/27 03:31:05;;;;;;;28.98;12.32;;;5.70;99.90;;;;;;5034423;28;20501;-83
2022/01/27 03:33:31;;;;;;;30.40;12.65;;;6.90;99.90;;;;;;5034197;28;20486;-83
2022/01/27 03:35:57;;;;;;;35.63;13.45;;;6.60;99.90;;;;;;5033947;28;20050;-83
2022/01/27 03:38:22;;;;;;;26.92;11.98;;;6.00;99.90;;;;;;5017054;28;20087;-84
2022/01/27 03:40:48;;;;;;;25.15;11.25;;;6.00;99.90;;;;;;5034263;28;20053;-83
2022/01/27 03:43:14;;;;;;;32.63;14.18;;;5.90;99.90;;;;;;5016286;28;20512;-83
2022/01/27 03:45:39;;;;;;;26.80;10.95;;;6.50;99.90;;;;;;5017080;28;20038;-83
2022/01/27 03:48:06;;;;;;;27.75;11.77;;;6.10;99.90;;;;;;5016280;28;20095;-83
2022/01/27 03:50:32;;;;;;;33.90;13.25;;;6.00;99.90;;;;;;5016829;28;20486;-83
2022/01/27 03:52:58;;;;;;;25.92;12.02;;;6.80;99.90;;;;;;5033736;28;20041;-82
2022/01/27 03:55:24;;;;;;;28.42;11.73;;;5.50;99.90;;;;;;5033974;28;20040;-83
2022/01/27 03:57:49;;;;;;;29.20;11.38;;;6.20;99.90;;;;;;5016793;28;20040;-83
2022/01/27 04:00:16;;;;;;;24.73;11.73;;;6.50;99.90;;;;;;5016296;28;20049;-83
2022/01/27 04:02:54;;;;;;;23.35;10.88;;;6.00;99.90;;;;;;5016898;28;20042;-84
2022/01/27 04:05:21;;;;;;;26.00;11.40;;;6.30;99.90;;;;;;5016023;28;20061;-83
2022/01/27 04:07:47;;;;;;;30.77;12.30;;;6.00;99.90;;;;;;5033941;28;20042;-84
2022/01/27 04:10:13;;;;;;;26.35;11.85;;;6.70;99.90;;;;;;5015838;28;20152;-84
2022/01/27 04:12:38;;;;;;;31.77;11.32;;;6.10;99.90;;;;;;5015755;28;20049;-84
2022/01/27 04:15:05;;;;;;;29.63;11.63;;;6.60;99.90;;;;;;5032396;28;20041;-83
2022/01/27 04:17:30;;;;;;;30.58;11.50;;;6.10;99.90;;;;;;5025876;28;20048;-84
2022/01/27 04:19:56;;;;;;;30.35;12.95;;;6.40;99.90;;;;;;5016522;28;20053;-83
2022/01/27 04:22:22;;;;;;;27.33;10.85;;;6.20;99.90;;;;;;5032968;28;20043;-83
2022/01/27 04:24:47;;;;;;;36.60;11.57;;;7.40;99.90;;;;;;5016437;28;20434;-83
2022/01/27 04:27:19;;;;;;;22.23;10.40;;;6.20;99.90;;;;;;5015771;28;20044;-84
2022/01/27 04:29:45;;;;;;;26.42;11.13;;;6.50;99.90;;;;;;5016223;28;20056;-84
2022/01/27 04:32:12;;;;;;;25.20;9.88;;;5.60;99.90;;;;;;5015942;28;20091;-84
2022/01/27 04:34:41;;;;;;;27.90;10.70;;;6.60;99.90;;;;;;5015823;28;20502;-84
2022/01/27 04:37:09;;;;;;;27.50;11.18;;;6.80;99.90;;;;;;5016348;28;20049;-84
2022/01/27 04:39:53;;;;;;;25.15;9.80;;;6.60;99.90;;;;;;5033210;28;20046;-84
2022/01/27 04:42:32;;;;;;;25.55;10.10;;;6.50;99.90;;;;;;5032423;28;20040;-84
2022/01/27 04:45:02;;;;;;;25.25;10.57;;;6.10;99.90;;;;;;5028158;28;20498;-84
2022/01/27 04:47:34;;;;;;;24.48;10.32;;;4.90;99.90;;;;;;5032535;28;20045;-83
2022/01/27 04:50:00;;;;;;;25.58;9.63;;;6.80;99.90;;;;;;5033176;28;20060;-84
2022/01/27 04:52:30;;;;;;;30.38;10.85;;;7.00;99.90;;;;;;5032286;28;20049;-83
2022/01/27 04:55:06;;;;;;;24.88;10.07;;;6.90;99.90;;;;;;5015739;28;20049;-83
2022/01/27 04:57:32;;;;;;;;;;;6.80;99.90;;;;;;5032925;28;20116;-83
2022/01/27 04:59:58;;;;;;;23.55;10.23;;;6.80;99.90;;;;;;5015331;28;20388;-83
2022/01/27 05:02:42;;;;;;;24.90;9.88;;;6.40;99.90;;;;;;5032508;28;20129;-83
2022/01/27 05:05:08;;;;;;;24.73;10.20;;;6.60;99.90;;;;;;5028734;28;20057;-84
2022/01/27 05:07:34;;;;;;;20.30;9.20;;;6.00;99.90;;;;;;5015584;28;20072;-83
2022/01/27 05:10:08;;;;;;;24.40;8.85;;;6.40;99.90;;;;;;5015469;28;20079;-83
2022/01/27 05:12:42;;;;;;;25.55;9.65;;;6.70;99.90;;;;;;5014786;28;20445;-84
2022/01/27 05:15:08;;;;;;;31.02;9.88;;;6.30;99.90;;;;;;5014941;28;20049;-83
2022/01/27 05:17:34;;;;;;;22.80;9.25;;;5.90;99.90;;;;;;5014862;28;20124;-83
2022/01/27 05:20:00;;;;;;;20.42;9.48;;;5.90;99.90;;;;;;5015416;28;20136;-85
2022/01/27 05:22:25;;;;;;;23.23;9.63;;;6.70;99.90;;;;;;5032005;28;20041;-84
2022/01/27 05:24:51;;;;;;;20.52;8.15;;;6.70;99.90;;;;;;5032047;28;20049;-84
2022/01/27 05:27:17;;;;;;;18.30;7.90;;;6.10;99.90;;;;;;5032279;28;20041;-83
2022/01/27 05:29:43;;;;;;;23.00;8.90;;;6.40;99.90;;;;;;5032040;28;20041;-84
2022/01/27 05:32:09;;;;;;;19.63;8.85;;;6.20;99.90;;;;;;5015322;28;20132;-84
2022/01/27 05:34:35;;;;;;;24.30;9.25;;;6.30;99.90;;;;;;5031980;28;20045;-84
2022/01/27 05:37:01;;;;;;;22.15;9.20;;;6.30;99.90;;;;;;5015225;28;20112;-84
2022/01/27 05:39:26;;;;;;;22.05;8.73;;;5.90;99.90;;;;;;5032135;28;20103;-84
2022/01/27 05:41:52;;;;;;;22.90;8.77;;;6.50;99.90;;;;;;5031871;28;20502;-85
2022/01/27 05:44:18;;;;;;;20.05;7.60;;;5.90;99.90;;;;;;5032237;28;20072;-85
2022/01/27 05:46:43;;;;;;;18.33;8.27;;;5.90;99.90;;;;;;5013742;28;20072;-85
2022/01/27 05:49:09;;;;;;;19.95;8.30;;;6.30;99.90;;;;;;5032118;28;20116;-85
2022/01/27 05:51:35;;;;;;;21.90;7.95;;;6.10;99.90;;;;;;5031547;28;20037;-84
2022/01/27 05:54:00;;;;;;;17.52;7.30;;;6.20;99.90;;;;;;4998239;28;20049;-85
2022/01/27 05:56:26;;;;;;;18.25;7.47;;;6.30;99.90;;;;;;5031906;28;20433;-85
2022/01/27 05:58:52;;;;;;;17.48;8.02;;;6.10;99.90;;;;;;5014330;28;20383;-84
2022/01/27 06:01:17;;;;;;;21.98;8.05;;;6.80;99.90;;;;;;5031356;28;20045;-85
2022/01/27 06:03:43;;;;;;;19.13;8.45;;;5.20;99.90;;;;;;5014520;28;20128;-82
2022/01/27 06:06:09;;;;;;;20.02;7.43;;;5.40;99.90;;;;;;5031363;28;20041;-84
2022/01/27 06:08:35;;;;;;;19.27;7.38;;;6.80;99.90;;;;;;5031854;28;20037;-84
2022/01/27 06:11:01;;;;;;;19.90;8.20;;;4.90;99.90;;;;;;5031761;28;20129;-84
2022/01/27 06:13:27;;;;;;;22.48;8.18;;;6.90;99.90;;;;;;5014436;28;20133;-84
2022/01/27 06:15:52;;;;;;;19.05;7.78;;;6.80;99.90;;;;;;5031180;28;20046;-84
2022/01/27 06:18:18;;;;;;;23.52;8.00;;;6.40;99.90;;;;;;5014495;28;20102;-85
2022/01/27 06:20:45;;;;;;;19.63;7.15;;;5.60;99.90;;;;;;5030749;28;20482;-85
2022/01/27 06:23:13;;;;;;;21.63;7.68;;;6.20;99.90;;;;;;5031567;28;20189;-85
2022/01/27 06:25:38;;;;;;;20.55;8.15;;;6.30;99.90;;;;;;5014259;28;20053;-86
2022/01/27 06:28:04;;;;;;;15.05;6.47;;;6.00;99.90;;;;;;5013772;28;20394;-85
2022/01/27 06:30:34;;;;;;;17.80;7.38;;;6.10;99.90;;;;;;5031682;28;20084;-85
2022/01/27 06:33:02;;;;;;;19.15;7.68;;;6.00;99.90;;;;;;5031057;28;20052;-83
2022/01/27 06:35:28;;;;;;;24.45;8.82;;;6.80;99.90;;;;;;5031270;28;20041;-86
2022/01/27 06:37:53;;;;;;;23.63;7.72;;;6.50;99.90;;;;;;5016317;28;20392;-86
2022/01/27 06:40:19;;;;;;;14.95;6.80;;;6.50;99.90;;;;;;5018200;28;20052;-86
2022/01/27 06:42:45;;;;;;;13.65;5.40;;;6.10;99.90;;;;;;5018083;28;20045;-84
2022/01/27 06:45:11;;;;;;;19.88;7.68;;;6.10;99.90;;;;;;5035458;28;20061;-85
2022/01/27 06:47:37;;;;;;;18.90;7.28;;;6.60;99.90;;;;;;5017862;28;20037;-85
2022/01/27 06:50:04;;;;;;;19.92;7.05;;;6.70;99.90;;;;;;5016931;28;20049;-86
2022/01/27 06:52:29;;;;;;;18.40;6.72;;;6.20;99.90;;;;;;5017883;28;20045;-85
2022/01/27 06:54:56;;;;;;;14.10;6.35;;;6.70;99.90;;;;;;5034833;28;20049;-86
2022/01/27 06:57:24;;;;;;;21.42;6.43;;;6.20;99.90;;;;;;5034726;28;20040;-84
2022/01/27 06:59:50;;;;;;;17.58;6.18;;;6.60;99.90;;;;;;5017468;28;20190;-85
2022/01/27 07:02:16;;;;;;;20.00;6.88;;;6.70;99.90;;;;;;5034752;28;20120;-84
2022/01/27 07:04:42;;;;;;;15.40;7.25;;;6.30;99.90;;;;;;5034966;28;20037;-84
2022/01/27 07:07:08;;;;;;;16.80;7.05;;;6.20;99.90;;;;;;5034199;28;20129;-85
2022/01/27 07:09:34;;;;;;;16.42;6.78;;;6.40;99.90;;;;;;5035145;28;20128;-86
2022/01/27 07:12:00;;;;;;;19.60;7.20;;;6.50;99.90;;;;;;5017054;28;20045;-84
2022/01/27 07:14:25;;;;;;;20.58;7.03;;;6.90;99.90;;;;;;5034998;28;20451;-86
2022/01/27 07:16:51;;;;;;;18.20;7.40;;;7.20;99.90;;;;;;5034776;28;20037;-85
2022/01/27 07:19:17;;;;;;;16.88;6.95;;;6.90;99.90;;;;;;5034168;28;20056;-85
2022/01/27 07:21:42;;;;;;;17.10;7.15;;;7.30;99.90;;;;;;5017082;28;20056;-84
2022/01/27 07:24:08;;;;;;;18.85;6.72;;;7.00;99.90;;;;;;5034183;28;20079;-85
2022/01/27 07:26:34;;;;;;;19.10;6.72;;;6.40;99.90;;;;;;5034612;28;20045;-86
2022/01/27 07:29:00;;;;;;;18.35;5.85;;;6.50;99.90;;;;;;5017259;28;20088;-86
2022/01/27 07:31:26;;;;;;;20.58;7.20;;;6.50;99.90;;;;;;5029070;28;20075;-86
2022/01/27 07:33:52;;;;;;;11.73;4.63;;;6.20;99.90;;;;;;5017339;28;20053;-87
2022/01/27 07:36:19;;;;;;;15.05;6.38;;;7.40;99.90;;;;;;5033907;28;20056;-85
2022/01/27 07:38:46;;;;;;;19.45;6.75;;;7.10;99.90;;;;;;5017348;28;20052;-85
2022/01/27 07:41:14;;;;;;;14.50;6.40;;;7.50;99.90;;;;;;5016657;28;20130;-86
2022/01/27 07:43:40;;;;;;;14.57;6.53;;;6.70;99.90;;;;;;5017030;28;20053;-85
2022/01/27 07:46:06;;;;;;;15.43;6.10;;;7.60;99.90;;;;;;5034142;28;20050;-82
2022/01/27 07:48:33;;;;;;;17.10;5.97;;;7.20;99.90;;;;;;5026594;28;20037;-84
2022/01/27 07:51:01;;;;;;;22.67;6.63;;;7.10;99.90;;;;;;5034189;28;20138;-85
2022/01/27 07:53:27;;;;;;;16.67;6.07;;;6.30;99.90;;;;;;5033614;28;20046;-86
2022/01/27 07:55:53;;;;;;;13.75;5.53;;;7.50;99.90;;;;;;5016775;28;20056;-85
2022/01/27 07:58:18;;;;;;;16.17;5.97;;;6.70;99.90;;;;;;5016236;28;20049;-84
2022/01/27 08:00:44;;;;;;;15.70;5.97;;;7.30;99.90;;;;;;5034305;28;20063;-84
2022/01/27 08:03:10;;;;;;;17.90;6.03;;;7.30;99.90;;;;;;5033712;28;20136;-84
2022/01/27 08:05:35;;;;;;;16.35;5.30;;;6.80;99.90;;;;;;5033611;28;20502;-85
2022/01/27 08:08:01;;;;;;;12.20;4.45;;;7.50;99.90;;;;;;5016053;28;20421;-83
2022/01/27 08:10:27;;;;;;;13.07;5.00;;;7.30;99.90;;;;;;5016016;28;20076;-82
2022/01/27 08:12:53;;;;;;;22.60;6.05;;;6.70;99.90;;;;;;5033161;28;20045;-85
2022/01/27 08:15:22;;;;;;;13.70;4.28;;;7.80;99.90;;;;;;5033386;28;20107;-86
2022/01/27 08:17:48;;;;;;;14.98;5.20;;;7.40;99.90;;;;;;5033649;28;20129;-83
2022/01/27 08:20:14;;;;;;;16.65;5.25;;;7.90;99.90;;;;;;5033676;28;20124;-84
2022/01/27 08:22:46;;;;;;;12.23;4.13;;;7.90;99.90;;;;;;5025896;28;20116;-83
2022/01/27 08:25:13;;;;;;;14.50;4.03;;;7.90;99.90;;;;;;5033284;28;20049;-85
2022/01/27 08:27:41;;;;;;;13.85;3.72;;;7.50;99.90;;;;;;5015410;28;20042;-85
2022/01/27 08:30:08;;;;;;;17.50;4.70;;;7.70;99.90;;;;;;4998868;28;20077;-82
2022/01/27 08:35:34;;;;;;;17.08;4.25;;;8.00;99.90;;;;;;4936767;29;20141;-81
2022/01/27 08:38:00;;;;;;;17.35;4.93;;;7.20;99.90;;;;;;4953647;29;20139;-80
2022/01/27 08:40:26;;;;;;;14.82;4.30;;;7.70;99.90;;;;;;4953662;29;20078;-84
2022/01/27 08:42:51;;;;;;;13.10;3.35;;;7.70;99.90;;;;;;4937085;29;20756;-86
2022/01/27 08:45:21;;;;;;;17.05;4.95;;;7.10;99.90;;;;;;4953541;29;20047;-82
2022/01/27 08:47:47;;;;;;;14.55;3.92;;;7.40;99.90;;;;;;4953105;28;20047;-82
2022/01/27 08:50:14;;;;;;;24.33;4.82;;;7.50;99.90;;;;;;4952405;29;20043;-86
2022/01/27 08:52:41;;;;;;;22.77;5.03;;;7.60;99.90;;;;;;4953268;29;20427;-83
2022/01/27 08:55:08;;;;;;;15.85;4.18;;;7.50;99.90;;;;;;4953107;29;20055;-83
2022/01/27 08:57:35;;;;;;;16.05;4.05;;;7.50;99.90;;;;;;4953065;28;20126;-84
2022/01/27 09:00:02;;;;;;;13.73;3.75;;;7.90;99.90;;;;;;4951901;28;20047;-87
2022/01/27 09:02:28;;;;;;;14.93;3.65;;;7.90;99.90;;;;;;4955101;28;20506;-87
2022/01/27 09:04:54;;;;;;;17.85;5.07;;;7.60;99.90;;;;;;5032145;28;20054;-87
2022/01/27 09:07:20;;;;;;;14.85;3.55;;;7.60;99.90;;;;;;5032148;28;20048;-88
2022/01/27 09:09:46;;;;;;;12.80;2.97;;;7.50;99.90;;;;;;5032614;28;20041;-86
2022/01/27 09:12:13;;;;;;;13.32;3.00;;;7.90;99.90;;;;;;5032291;28;20049;-87
2022/01/27 09:14:41;;;;;;;20.50;3.92;;;7.90;99.90;;;;;;5032973;28;20040;-85
2022/01/27 09:17:08;;;;;;;12.80;3.28;;;7.80;99.90;;;;;;5032585;28;20453;-87
2022/01/27 09:19:38;;;;;;;15.55;3.05;;;7.70;99.90;;;;;;5025261;28;20042;-87
2022/01/27 09:22:11;;;;;;;14.63;3.25;;;7.80;99.90;;;;;;5032612;28;20128;-86
2022/01/27 09:24:51;;;;;;;18.05;3.70;;;7.40;99.90;;;;;;5032542;28;20127;-86
2022/01/27 09:27:18;;;;;;;17.30;3.00;;;7.70;99.90;;;;;;5031887;28;20049;-85
2022/01/27 09:29:47;;;;;;;13.02;2.67;;;8.40;99.90;;;;;;5032355;28;20068;-85
2022/01/27 09:32:13;;;;;;;12.75;3.45;;;8.10;99.90;;;;;;5031224;28;20042;-85
2022/01/27 09:34:38;;;;;;;19.02;2.90;;;8.50;99.90;;;;;;5031597;28;20053;-86
2022/01/27 09:37:04;;;;;;;15.88;3.47;;;8.20;99.90;;;;;;5031775;28;20039;-87
2022/01/27 09:39:32;;;;;;;14.20;2.85;;;7.90;99.90;;;;;;5015305;28;20088;-87
2022/01/27 09:41:58;;;;;;;14.43;3.28;;;8.10;99.90;;;;;;5025409;28;20367;-87
2022/01/27 09:44:30;;;;;;;20.73;2.90;;;8.00;99.90;;;;;;5032616;28;20043;-87
2022/01/27 09:46:58;;;;;;;10.63;2.60;;;8.50;99.90;;;;;;5031475;28;20490;-86
2022/01/27 09:49:33;;;;;;;11.57;3.03;;;7.90;99.90;;;;;;5014957;28;20046;-89
2022/01/27 09:51:59;;;;;;;15.75;3.22;;;7.90;99.90;;;;;;5031514;28;20080;-86
2022/01/27 09:54:25;;;;;;;14.07;2.75;;;7.90;99.90;;;;;;5032211;28;20111;-85
2022/01/27 09:56:53;;;;;;;9.63;1.88;;;8.50;99.90;;;;;;5013388;28;20045;-82
2022/01/27 09:59:21;;;;;;;14.00;2.65;;;8.50;99.90;;;;;;5032423;28;20052;-87
2022/01/27 10:01:56;;;;;;;14.52;2.53;;;8.80;99.90;;;;;;5029681;28;20052;-85
2022/01/27 10:04:24;;;;;;;;;;;8.60;99.90;;;;;;5025646;28;20076;-87
2022/01/27 10:06:57;;;;;;;13.95;2.08;;;7.80;99.90;;;;;;5032045;28;19924;-85
2022/01/27 10:09:27;;;;;;;12.63;2.83;;;8.70;99.90;;;;;;5023708;28;20111;-86
2022/01/27 10:11:53;;;;;;;9.40;1.40;;;8.70;99.90;;;;;;5031454;28;20112;-83
2022/01/27 10:14:34;;;;;;;13.50;2.08;;;8.20;99.90;;;;;;5010674;28;20108;-84
2022/01/27 10:17:02;;;;;;;8.38;1.88;;;8.20;99.90;;;;;;5006389;28;20057;-82
2022/01/27 10:19:29;;;;;;;8.38;2.10;;;8.30;99.90;;;;;;5009762;28;20058;-87
2022/01/27 10:22:04;;;;;;;10.77;1.90;;;8.30;99.90;;;;;;5011433;28;20042;-83
2022/01/27 10:24:32;;;;;;;14.50;2.33;;;8.40;99.90;;;;;;5007885;28;20507;-89
2022/01/27 10:32:59;;;;;;;13.80;2.78;;;8.50;99.90;;;;;;4971349;28;20466;-86
2022/01/27 10:35:27;;;;;;;15.38;3.25;;;8.80;99.90;;;;;;4971594;28;20133;-87
2022/01/27 10:38:08;;;;;;;12.02;2.42;;;9.20;99.90;;;;;;4964190;28;20117;-88
2022/01/27 10:40:38;;;;;;;13.05;3.25;;;8.80;99.90;;;;;;4955453;28;20097;-87
2022/01/27 10:43:22;;;;;;;15.95;2.72;;;8.70;99.90;;;;;;4978097;28;20121;-86
2022/01/27 10:49:20;;;;;;;9.52;3.25;;;8.80;99.90;;;;;;4975057;28;20511;-83
2022/01/27 10:51:46;;;;;;;6.60;1.70;;;8.80;99.90;;;;;;4976423;28;20049;-82
2022/01/27 10:54:21;;;;;;;14.82;2.75;;;9.50;99.90;;;;;;4963987;28;20076;-88
2022/01/27 10:56:48;;;;;;;13.15;2.92;;;8.90;99.90;;;;;;4968610;28;20070;-87
2022/01/27 10:59:16;;;;;;;21.30;3.03;;;9.40;99.90;;;;;;4974021;28;20571;-84
2022/01/27 11:01:44;;;;;;;14.85;2.80;;;8.90;99.90;;;;;;4953908;28;20046;-84
2022/01/27 11:04:12;;;;;;;11.20;2.47;;;9.40;99.90;;;;;;4969364;28;20281;-87
2022/01/27 11:06:56;;;;;;;15.73;2.88;;;9.20;99.90;;;;;;4979107;28;20594;-86
2022/01/27 11:09:23;;;;;;;12.95;2.13;;;9.10;99.90;;;;;;4972218;28;20108;-87
2022/01/27 11:11:52;;;;;;;12.95;2.22;;;9.10;99.90;;;;;;5010717;28;20042;-87
2022/01/27 11:14:19;;;;;;;17.80;2.90;;;9.00;99.90;;;;;;5009414;28;20153;-85
2022/01/27 11:16:49;;;;;;;16.02;2.47;;;9.10;99.90;;;;;;5011409;28;20049;-86
2022/01/27 11:22:24;;;;;;;15.82;2.47;;;9.40;99.90;;;;;;5009990;28;20394;-85
2022/01/27 11:25:08;;;;;;;19.30;2.90;;;9.50;99.90;;;;;;5007533;28;20116;-84
2022/01/27 11:27:38;;;;;;;12.93;1.95;;;9.60;99.90;;;;;;5007111;28;20050;-86
2022/01/27 11:30:33;;;;;;;14.43;2.45;;;9.50;99.90;;;;;;5015069;28;20049;-82
2022/01/27 11:33:03;;;;;;;16.30;2.50;;;9.20;99.90;;;;;;5009400;28;20049;-82
2022/01/27 11:35:29;;;;;;;17.95;2.97;;;9.30;99.90;;;;;;5013692;28;20045;-82
2022/01/27 11:37:57;;;;;;;13.05;1.77;;;9.60;99.90;;;;;;5014167;28;20042;-82
2022/01/27 11:40:35;;;;;;;13.43;2.45;;;9.10;99.90;;;;;;5014458;28;20386;-83
2022/01/27 11:43:04;;;;;;;13.45;2.88;;;9.40;99.90;;;;;;5005697;28;20042;-82
2022/01/27 11:45:37;;;;;;;11.88;1.90;;;9.30;99.90;;;;;;5014690;28;20554;-83
2022/01/27 11:48:08;;;;;;;18.33;2.47;;;9.30;99.90;;;;;;5014236;28;20080;-82
2022/01/27 11:50:47;;;;;;;14.20;2.75;;;9.20;99.90;;;;;;5013702;28;20129;-83
2022/01/27 11:53:32;;;;;;;14.10;2.47;;;9.30;99.90;;;;;;5007890;28;20050;-88
2022/01/27 11:56:15;;;;;;;10.90;1.40;;;9.30;99.90;;;;;;5012074;28;20494;-82
2022/01/27 11:58:49;;;;;;;16.52;2.80;;;9.10;99.90;;;;;;5013397;28;20085;-88
2022/01/27 12:01:25;;;;;;;18.48;2.05;;;10.10;99.90;;;;;;5015509;28;20093;-82
2022/01/27 12:04:07;;;;;;;23.63;3.38;;;9.20;99.90;;;;;;5013846;28;20950;-88
2022/01/27 12:07:02;;;;;;;10.75;1.40;;;10.00;99.90;;;;;;5014786;28;20420;-87
2022/01/27 12:09:34;;;;;;;13.98;1.77;;;9.40;99.90;;;;;;5014811;28;20140;-87
2022/01/27 12:12:07;;;;;;;17.02;2.33;;;9.70;99.90;;;;;;5014621;28;20397;-87
2022/01/27 12:14:35;;;;;;;16.65;2.05;;;9.40;99.90;;;;;;5013832;28;20057;-85
2022/01/27 12:17:07;;;;;;;17.40;2.28;;;9.80;99.90;;;;;;5014492;28;20495;-86
2022/01/27 12:19:56;;;;;;;16.55;2.35;;;9.50;99.90;;;;;;5014826;28;20073;-84
2022/01/27 12:22:27;;;;;;;16.50;1.90;;;9.70;99.90;;;;;;5002641;28;20132;-84
2022/01/27 12:25:01;;;;;;;13.80;2.08;;;9.70;99.90;;;;;;5014811;28;20058;-84
2022/01/27 12:27:28;;;;;;;20.40;2.45;;;9.80;99.90;;;;;;5013385;28;20030;-84
2022/01/27 12:29:56;;;;;;;16.67;1.88;;;9.80;99.90;;;;;;5013390;28;20045;-92
2022/01/27 12:32:23;;;;;;;16.38;2.58;;;10.10;99.90;;;;;;5006976;28;20038;-89
2022/01/27 12:34:55;;;;;;;18.40;3.83;;;9.90;99.90;;;;;;5013136;28;20046;-82
2022/01/27 12:37:23;;;;;;;13.30;1.67;;;10.00;99.90;;;;;;5007535;28;20042;-81
2022/01/27 12:39:54;;;;;;;18.75;2.33;;;9.50;99.90;;;;;;5012441;28;20050;-81
2022/01/27 12:42:25;;;;;;;15.27;2.00;;;10.10;99.90;;;;;;5004730;28;20506;-80
2022/01/27 12:44:56;;;;;;;12.93;1.30;;;10.40;99.90;;;;;;5012278;28;20121;-81
2022/01/27 12:47:23;;;;;;;12.07;1.75;;;10.20;99.90;;;;;;5008015;28;20049;-80
2022/01/27 12:50:05;;;;;;;18.08;2.17;;;10.00;99.90;;;;;;5011573;28;20085;-81
2022/01/27 12:52:40;;;;;;;17.42;2.08;;;10.00;99.90;;;;;;5007468;28;20382;-80
2022/01/27 12:55:07;;;;;;;17.58;1.73;;;9.60;99.90;;;;;;5009074;28;20121;-87
2022/01/27 12:57:33;;;;;;;17.70;2.03;;;9.40;99.90;;;;;;5013226;28;20056;-80
2022/01/27 13:00:00;;;;;;;18.40;2.42;;;10.00;99.90;;;;;;5012270;28;20042;-86
2022/01/27 13:02:28;;;;;;;15.68;3.90;;;9.70;99.90;;;;;;5013263;28;20041;-86
2022/01/27 13:04:58;;;;;;;20.33;2.25;;;9.80;99.90;;;;;;5011659;28;20046;-86
2022/01/27 13:07:26;;;;;;;16.30;1.67;;;9.90;99.90;;;;;;5011161;28;20049;-85
2022/01/27 13:10:07;;;;;;;12.70;1.67;;;10.50;99.90;;;;;;5011760;28;20038;-81
2022/01/27 13:12:43;;;;;;;16.88;1.73;;;9.50;99.90;;;;;;5012805;28;20033;-78
2022/01/27 13:15:14;;;;;;;14.40;2.05;;;9.80;99.90;;;;;;5030514;28;20061;-81
2022/01/27 13:20:30;;;;;;;21.05;2.67;;;10.30;99.90;;;;;;5032518;28;20045;-80
2022/01/27 13:23:05;;;;;;;12.63;2.50;;;9.80;99.90;;;;;;5032445;28;20124;-81
2022/01/27 13:25:46;;;;;;;21.77;2.28;;;9.80;99.90;;;;;;5025566;28;20140;-81
2022/01/27 13:28:20;;;;;;;15.38;1.70;;;9.70;99.90;;;;;;5031744;28;20044;-79
2022/01/27 13:30:47;;;;;;;14.35;2.50;;;9.80;99.90;;;;;;5032279;28;20042;-80
2022/01/27 13:33:14;;;;;;;23.17;2.40;;;9.70;99.90;;;;;;5031712;28;20042;-80
2022/01/27 13:35:44;;;;;;;11.27;2.35;;;10.30;99.90;;;;;;5031817;28;20056;-88
2022/01/27 13:38:24;;;;;;;14.88;1.65;;;9.70;99.90;;;;;;5031352;28;20045;-81
2022/01/27 13:41:16;;;;;;;23.65;2.70;;;9.60;99.90;;;;;;5031953;28;20053;-83
2022/01/27 13:43:44;;;;;;;16.73;2.67;;;9.70;99.90;;;;;;5021573;28;20041;-81
2022/01/27 13:46:11;;;;;;;16.88;1.67;;;9.50;99.90;;;;;;5031738;28;20104;-82
2022/01/27 13:48:45;;;;;;;14.98;1.65;;;10.00;99.90;;;;;;5027636;28;20041;-81